Time;durP1;ratioP1;P1;durP2;ratioP2;P2;SDS_P1;SDS_P2;PMS_P1;PMS_P2;Temp;Humidity;BMP_temperature;BMP_pressure;BME280_temperature;BME280_humidity;BME280_pressure;Samples;Min_cycle;Max_cycle;Signal;HPM_P1;HPM_P2
2023/12/26 00:03:16;;;;;;;23.27;8.87;;;;;;;;;;10387020;28;20498;-75
2023/12/26 00:08:16;;;;;;;11.60;6.50;;;;;;;;;;10387501;28;20498;-75
2023/12/26 00:13:17;;;;;;;19.73;7.32;;;;;;;;;;10387187;28;20498;-77
2023/12/26 00:18:17;;;;;;;18.40;8.60;;;;;;;;;;10387839;28;20025;-75
2023/12/26 00:23:17;;;;;;;17.27;6.50;;;;;;;;;;10386016;28;20021;-76
2023/12/26 00:28:19;;;;;;;26.48;6.82;;;;;;;;;;10385972;28;20471;-75
2023/12/26 00:33:19;;;;;;;14.70;6.68;;;;;;;;;;10385873;28;20506;-75
2023/12/26 00:38:21;;;;;;;15.93;7.55;;;;;;;;;;10384981;28;20014;-75
2023/12/26 00:43:21;;;;;;;16.77;8.05;;;;;;;;;;10401531;28;20025;-75
2023/12/26 00:48:21;;;;;;;22.83;8.32;;;;;;;;;;10385037;28;20022;-76
2023/12/26 00:53:22;;;;;;;23.15;9.93;;;;;;;;;;10402728;28;20025;-79
2023/12/26 00:58:23;;;;;;;22.30;7.68;;;;;;;;;;10386406;28;20026;-78
2023/12/26 01:03:23;;;;;;;20.15;6.75;;;;;;;;;;10403352;28;20022;-79
2023/12/26 01:08:24;;;;;;;22.80;9.25;;;;;;;;;;10402197;28;20017;-76
2023/12/26 01:13:25;;;;;;;13.35;7.50;;;;;;;;;;10384418;28;20076;-78
2023/12/26 01:18:25;;;;;;;17.05;7.40;;;;;;;;;;10401895;28;20017;-76
2023/12/26 01:23:26;;;;;;;21.50;7.03;;;;;;;;;;10384420;28;20043;-74
2023/12/26 01:28:26;;;;;;;18.10;7.60;;;;;;;;;;10401389;28;20114;-76
2023/12/26 01:33:26;;;;;;;22.77;8.23;;;;;;;;;;10382741;23;20058;-75
2023/12/26 01:38:27;;;;;;;26.38;7.50;;;;;;;;;;10356878;28;20033;-77
2023/12/26 01:43:27;;;;;;;16.02;7.55;;;;;;;;;;10343443;28;20109;-76
2023/12/26 01:48:27;;;;;;;21.67;6.95;;;;;;;;;;10343116;28;20155;-77
2023/12/26 01:53:28;;;;;;;19.95;7.20;;;;;;;;;;10344604;28;20108;-75
2023/12/26 01:58:28;;;;;;;13.82;6.63;;;;;;;;;;10343057;28;20412;-75
2023/12/26 02:03:28;;;;;;;14.68;6.90;;;;;;;;;;10360709;28;20033;-75
2023/12/26 02:08:29;;;;;;;17.50;9.00;;;;;;;;;;10341866;28;20018;-76
2023/12/26 02:13:30;;;;;;;14.98;7.47;;;;;;;;;;10342257;28;20172;-76
2023/12/26 02:18:30;;;;;;;13.23;7.37;;;;;;;;;;10341941;28;20083;-76
2023/12/26 02:23:31;;;;;;;17.75;7.43;;;;;;;;;;10341947;28;20273;-78
2023/12/26 02:28:32;;;;;;;13.88;6.68;;;;;;;;;;10340430;28;20038;-80
2023/12/26 02:33:33;;;;;;;13.93;7.30;;;;;;;;;;10366813;28;20046;-78
2023/12/26 02:38:33;;;;;;;13.48;6.80;;;;;;;;;;10349465;28;20026;-80
2023/12/26 02:43:33;;;;;;;11.40;6.60;;;;;;;;;;10349232;28;20085;-81
2023/12/26 02:48:33;;;;;;;18.55;6.55;;;;;;;;;;10353195;28;20054;-75
2023/12/26 02:53:34;;;;;;;14.30;6.55;;;;;;;;;;10342415;28;20040;-76
2023/12/26 02:58:36;;;;;;;9.57;5.75;;;;;;;;;;10362810;28;20140;-74
2023/12/26 03:03:36;;;;;;;7.68;4.32;;;;;;;;;;10358336;28;20567;-76
2023/12/26 03:08:36;;;;;;;7.72;4.40;;;;;;;;;;10379327;28;20033;-75
2023/12/26 03:13:36;;;;;;;5.97;3.30;;;;;;;;;;10381766;28;20116;-77
2023/12/26 03:18:36;;;;;;;10.73;4.38;;;;;;;;;;10363249;28;20034;-76
2023/12/26 03:23:37;;;;;;;10.20;4.03;;;;;;;;;;10361430;28;20026;-81
2023/12/26 03:28:37;;;;;;;6.63;4.63;;;;;;;;;;10357583;28;20121;-77
2023/12/26 03:33:38;;;;;;;7.53;3.67;;;;;;;;;;10352904;28;20157;-80
2023/12/26 03:38:38;;;;;;;10.50;3.43;;;;;;;;;;10379756;23;20506;-82
2023/12/26 03:43:38;;;;;;;13.15;4.38;;;;;;;;;;10362919;28;20408;-79
2023/12/26 03:48:39;;;;;;;10.47;5.03;;;;;;;;;;10346570;28;20034;-81
2023/12/26 03:53:39;;;;;;;8.73;5.50;;;;;;;;;;10358305;23;20289;-80
2023/12/26 03:58:40;;;;;;;9.63;4.05;;;;;;;;;;10339156;28;20197;-80
2023/12/26 04:03:40;;;;;;;8.80;4.20;;;;;;;;;;10319551;28;20083;-80
2023/12/26 04:08:41;;;;;;;9.98;4.20;;;;;;;;;;10338604;28;20037;-79
2023/12/26 04:13:41;;;;;;;10.73;4.35;;;;;;;;;;10321212;28;20075;-81
2023/12/26 04:18:42;;;;;;;13.45;3.75;;;;;;;;;;10339017;28;20034;-80
2023/12/26 04:23:43;;;;;;;6.82;4.07;;;;;;;;;;10337878;28;20022;-78
2023/12/26 04:28:44;;;;;;;7.18;4.13;;;;;;;;;;10337998;28;20224;-80
2023/12/26 04:33:45;;;;;;;8.65;3.70;;;;;;;;;;10336943;28;20101;-80
2023/12/26 04:38:45;;;;;;;10.50;4.63;;;;;;;;;;10320333;28;20030;-79
2023/12/26 04:43:47;;;;;;;8.85;3.90;;;;;;;;;;10336675;28;20315;-80
2023/12/26 04:48:48;;;;;;;8.60;3.92;;;;;;;;;;10314924;28;20189;-81
2023/12/26 04:53:51;;;;;;;6.35;3.83;;;;;;;;;;10319515;28;20046;-79
2023/12/26 04:58:51;;;;;;;10.18;5.00;;;;;;;;;;10312557;28;20084;-79
2023/12/26 05:03:52;;;;;;;12.85;4.47;;;;;;;;;;10336099;28;20315;-80
2023/12/26 05:08:52;;;;;;;7.85;4.13;;;;;;;;;;10309187;28;20044;-80
2023/12/26 05:13:52;;;;;;;8.80;3.35;;;;;;;;;;10307434;28;20018;-79
2023/12/26 05:18:53;;;;;;;5.95;3.70;;;;;;;;;;10319370;28;20048;-79
2023/12/26 05:23:53;;;;;;;7.93;3.70;;;;;;;;;;10335588;28;20200;-80
2023/12/26 05:28:53;;;;;;;9.05;4.53;;;;;;;;;;10318173;28;20338;-81
2023/12/26 05:33:53;;;;;;;12.18;4.45;;;;;;;;;;10338283;28;20022;-80
2023/12/26 05:38:54;;;;;;;4.53;2.77;;;;;;;;;;10337376;28;20041;-80
2023/12/26 05:43:54;;;;;;;10.13;3.92;;;;;;;;;;10336233;28;20257;-80
2023/12/26 05:48:54;;;;;;;8.40;3.88;;;;;;;;;;10338534;28;20028;-81
2023/12/26 05:53:54;;;;;;;6.38;3.50;;;;;;;;;;10336360;28;20351;-82
2023/12/26 05:58:54;;;;;;;11.05;4.22;;;;;;;;;;10324531;28;20315;-81
2023/12/26 06:03:55;;;;;;;6.43;3.53;;;;;;;;;;10325996;28;20010;-81
2023/12/26 06:08:55;;;;;;;8.48;3.83;;;;;;;;;;10343907;28;20189;-82
2023/12/26 06:13:55;;;;;;;10.48;4.20;;;;;;;;;;10343993;28;20300;-80
2023/12/26 06:18:55;;;;;;;11.13;4.97;;;;;;;;;;10343821;28;20047;-80
2023/12/26 06:23:56;;;;;;;9.18;5.47;;;;;;;;;;10341197;28;20018;-80
2023/12/26 06:28:56;;;;;;;13.80;4.32;;;;;;;;;;10342142;28;20026;-81
2023/12/26 06:33:56;;;;;;;14.38;6.00;;;;;;;;;;10342879;28;20026;-82
2023/12/26 06:39:00;;;;;;;9.63;4.80;;;;;;;;;;10338062;28;20046;-80
2023/12/26 06:44:01;;;;;;;10.27;4.30;;;;;;;;;;10325204;28;20324;-81
2023/12/26 06:49:01;;;;;;;10.17;4.33;;;;;;;;;;10355105;23;20084;-79
2023/12/26 06:54:01;;;;;;;6.30;3.80;;;;;;;;;;10350818;28;20031;-80
2023/12/26 06:59:01;;;;;;;12.45;4.53;;;;;;;;;;10330645;28;20310;-85
2023/12/26 07:04:03;;;;;;;8.60;5.10;;;;;;;;;;10327414;28;20475;-83
2023/12/26 07:09:03;;;;;;;5.18;3.10;;;;;;;;;;10336622;28;20432;-77
2023/12/26 07:14:03;;;;;;;7.95;4.03;;;;;;;;;;10315832;28;20041;-78
2023/12/26 07:19:03;;;;;;;6.93;3.88;;;;;;;;;;10301139;28;20025;-80
2023/12/26 07:24:04;;;;;;;8.13;3.78;;;;;;;;;;10321195;28;20386;-80
2023/12/26 07:29:04;;;;;;;7.90;3.70;;;;;;;;;;10309516;28;20026;-81
2023/12/26 07:34:08;;;;;;;19.00;4.82;;;;;;;;;;10335951;28;20353;-77
2023/12/26 07:39:08;;;;;;;9.93;4.95;;;;;;;;;;10304669;28;20030;-78
2023/12/26 07:44:08;;;;;;;14.30;7.30;;;;;;;;;;10323626;28;20026;-81
2023/12/26 07:49:09;;;;;;;21.60;9.38;;;;;;;;;;10296763;28;20088;-79
2023/12/26 07:54:09;;;;;;;19.70;10.38;;;;;;;;;;10320382;28;20037;-80
2023/12/26 07:59:10;;;;;;;22.85;11.05;;;;;;;;;;10303420;28;20606;-81
2023/12/26 08:04:10;;;;;;;25.67;10.55;;;;;;;;;;10313104;28;20465;-79
2023/12/26 08:09:11;;;;;;;21.77;10.55;;;;;;;;;;10316741;28;20482;-77
2023/12/26 08:14:17;;;;;;;19.13;10.82;;;;;;;;;;10301236;28;20034;-84
2023/12/26 08:19:25;;;;;;;17.92;10.07;;;;;;;;;;10320694;28;20106;-81
2023/12/26 08:24:26;;;;;;;24.52;10.75;;;;;;;;;;10300385;28;20026;-83
2023/12/26 08:29:27;;;;;;;22.77;10.35;;;;;;;;;;10290835;28;20022;-84
2023/12/26 08:34:29;;;;;;;16.95;9.10;;;;;;;;;;10303955;28;20053;-78
2023/12/26 08:39:29;;;;;;;16.83;9.52;;;;;;;;;;10303492;28;20073;-80
2023/12/26 08:44:29;;;;;;;13.25;8.00;;;;;;;;;;10301955;28;20551;-78
2023/12/26 08:49:29;;;;;;;20.42;11.82;;;;;;;;;;10316984;28;20144;-78
2023/12/26 08:54:30;;;;;;;18.27;10.07;;;;;;;;;;10315539;28;20105;-82
2023/12/26 08:59:31;;;;;;;23.55;10.55;;;;;;;;;;10319632;28;20609;-76
2023/12/26 09:04:32;;;;;;;21.75;10.05;;;;;;;;;;10317289;28;20050;-80
2023/12/26 09:09:32;;;;;;;30.90;10.63;;;;;;;;;;10291298;28;20030;-81
2023/12/26 09:14:32;;;;;;;21.40;11.23;;;;;;;;;;10286678;28;20037;-84
2023/12/26 09:19:33;;;;;;;24.63;8.93;;;;;;;;;;10314879;28;20026;-78
2023/12/26 09:24:33;;;;;;;20.00;8.27;;;;;;;;;;10315837;28;20015;-82
2023/12/26 09:29:33;;;;;;;23.15;8.90;;;;;;;;;;10288128;28;20749;-78
2023/12/26 09:34:33;;;;;;;17.70;7.80;;;;;;;;;;10288592;28;20112;-79
2023/12/26 09:39:34;;;;;;;18.13;8.65;;;;;;;;;;10314720;28;20090;-80
2023/12/26 09:44:34;;;;;;;20.35;8.40;;;;;;;;;;10331629;28;20014;-73
2023/12/26 09:49:34;;;;;;;20.63;10.30;;;;;;;;;;10298698;28;20660;-81
2023/12/26 09:54:35;;;;;;;17.97;11.27;;;;;;;;;;10279979;28;20034;-81
2023/12/26 09:59:36;;;;;;;30.37;8.83;;;;;;;;;;10274674;28;20045;-80
2023/12/26 10:04:37;;;;;;;16.85;7.75;;;;;;;;;;10248431;28;20401;-81
2023/12/26 10:09:37;;;;;;;24.60;7.60;;;;;;;;;;10247514;28;20022;-80
2023/12/26 10:14:37;;;;;;;12.55;4.45;;;;;;;;;;10277713;28;20031;-79
2023/12/26 10:19:38;;;;;;;13.67;5.33;;;;;;;;;;10276143;28;20181;-78
2023/12/26 10:24:39;;;;;;;23.03;6.87;;;;;;;;;;10276301;28;20019;-79
2023/12/26 10:29:39;;;;;;;15.45;5.30;;;;;;;;;;10244391;28;20812;-79
2023/12/26 10:34:41;;;;;;;14.43;5.43;;;;;;;;;;10261433;28;20023;-86
2023/12/26 10:39:41;;;;;;;8.43;4.07;;;;;;;;;;10250395;28;20061;-80
2023/12/26 10:45:14;;;;;;;15.45;5.28;;;;;;;;;;10268714;28;20510;-78
2023/12/26 10:50:16;;;;;;;15.20;6.30;;;;;;;;;;10291684;28;20559;-79
2023/12/26 10:55:18;;;;;;;14.60;6.85;;;;;;;;;;10292125;28;20037;-81
2023/12/26 11:00:47;;;;;;;14.55;7.30;;;;;;;;;;10288418;28;20054;-80
2023/12/26 13:54:24;;;;;;;10.48;5.63;;;;;;;;;;10315631;28;20560;-79
2023/12/26 13:59:24;;;;;;;14.95;5.55;;;;;;;;;;10315674;28;20034;-77
2023/12/26 14:04:25;;;;;;;10.70;5.30;;;;;;;;;;10313847;28;20018;-78
2023/12/26 14:09:25;;;;;;;14.07;5.53;;;;;;;;;;10312579;28;20049;-76
2023/12/26 14:14:25;;;;;;;16.20;6.00;;;;;;;;;;10307010;28;20131;-75
2023/12/26 14:19:26;;;;;;;13.35;6.15;;;;;;;;;;10318258;28;20028;-76
2023/12/26 14:24:26;;;;;;;12.98;5.82;;;;;;;;;;10322368;28;20121;-80
2023/12/26 14:29:26;;;;;;;17.05;6.90;;;;;;;;;;10325267;28;20022;-81
2023/12/26 14:34:26;;;;;;;21.57;8.07;;;;;;;;;;10324968;28;20026;-78
2023/12/26 14:39:27;;;;;;;21.83;6.70;;;;;;;;;;10304794;28;20436;-82
2023/12/26 14:44:27;;;;;;;21.58;6.57;;;;;;;;;;10297063;28;20400;-81
2023/12/26 14:49:27;;;;;;;14.15;7.10;;;;;;;;;;10319846;28;20150;-80
2023/12/26 14:54:27;;;;;;;20.05;8.20;;;;;;;;;;10320726;28;20029;-80
2023/12/26 14:59:27;;;;;;;20.83;8.60;;;;;;;;;;10321593;28;20633;-79
2023/12/26 15:04:28;;;;;;;23.30;8.30;;;;;;;;;;10310729;28;20496;-77
2023/12/26 15:09:28;;;;;;;19.23;7.88;;;;;;;;;;10299299;28;20025;-79
2023/12/26 15:14:29;;;;;;;39.73;9.70;;;;;;;;;;10305451;28;20428;-79
2023/12/26 15:19:30;;;;;;;22.33;9.43;;;;;;;;;;10319481;28;20033;-78
2023/12/26 15:24:30;;;;;;;22.95;9.88;;;;;;;;;;10290834;28;20488;-78
2023/12/26 15:29:30;;;;;;;20.73;10.10;;;;;;;;;;10305530;28;20018;-78
2023/12/26 15:34:31;;;;;;;24.35;10.38;;;;;;;;;;10307847;28;20122;-78
2023/12/26 15:39:31;;;;;;;24.20;10.27;;;;;;;;;;10319220;28;20417;-78
2023/12/26 15:44:31;;;;;;;20.02;9.05;;;;;;;;;;10324329;28;20432;-79
2023/12/26 15:49:31;;;;;;;20.52;10.32;;;;;;;;;;10316304;28;20512;-80
2023/12/26 15:54:31;;;;;;;20.83;10.60;;;;;;;;;;10288286;28;20054;-79
2023/12/26 15:59:32;;;;;;;31.88;11.95;;;;;;;;;;10283249;28;20031;-80
2023/12/26 16:04:32;;;;;;;24.50;11.40;;;;;;;;;;10282211;28;20023;-80
2023/12/26 16:09:32;;;;;;;36.53;14.45;;;;;;;;;;10279574;28;20026;-80
2023/12/26 16:14:33;;;;;;;27.27;10.93;;;;;;;;;;10282650;28;20015;-74
2023/12/26 16:19:36;;;;;;;36.53;11.75;;;;;;;;;;10296421;28;20106;-80
2023/12/26 16:24:37;;;;;;;32.92;11.10;;;;;;;;;;10289811;28;20540;-81
2023/12/26 16:29:37;;;;;;;21.17;11.25;;;;;;;;;;10265560;28;20077;-76
2023/12/26 16:34:38;;;;;;;25.67;10.70;;;;;;;;;;10259734;28;20030;-76
2023/12/26 16:39:38;;;;;;;33.95;10.82;;;;;;;;;;10265501;28;20027;-76
2023/12/26 16:44:42;;;;;;;39.47;10.95;;;;;;;;;;10260204;28;20019;-74
2023/12/26 16:49:42;;;;;;;33.97;11.43;;;;;;;;;;10275417;28;20050;-77
2023/12/26 16:54:44;;;;;;;32.97;11.60;;;;;;;;;;10259263;28;20027;-77
2023/12/26 16:59:45;;;;;;;32.95;10.95;;;;;;;;;;10284004;28;20030;-80
2023/12/26 17:04:46;;;;;;;27.00;11.15;;;;;;;;;;10263764;28;20015;-79
2023/12/26 17:09:46;;;;;;;28.60;11.85;;;;;;;;;;10275742;28;20034;-76
2023/12/26 17:14:46;;;;;;;26.65;12.30;;;;;;;;;;10263087;28;20027;-75
2023/12/26 17:19:46;;;;;;;41.60;14.38;;;;;;;;;;10274688;28;20114;-77
2023/12/26 17:24:46;;;;;;;27.40;12.23;;;;;;;;;;10274023;28;20022;-77
2023/12/26 17:29:47;;;;;;;31.30;14.38;;;;;;;;;;10263091;28;20089;-77
2023/12/26 17:34:47;;;;;;;34.03;13.63;;;;;;;;;;10273930;28;20473;-77
2023/12/26 17:39:47;;;;;;;31.85;13.32;;;;;;;;;;10276412;28;20527;-75
2023/12/26 17:44:48;;;;;;;36.20;12.73;;;;;;;;;;10274784;28;20074;-78
2023/12/26 17:49:48;;;;;;;44.35;13.73;;;;;;;;;;10273162;28;20114;-77
2023/12/26 17:54:49;;;;;;;52.42;14.18;;;;;;;;;;10275277;28;20039;-82
2023/12/26 17:59:50;;;;;;;38.90;14.10;;;;;;;;;;10275901;28;20549;-79
2023/12/26 18:04:50;;;;;;;34.78;13.68;;;;;;;;;;10268541;28;20015;-78
2023/12/26 18:09:50;;;;;;;29.75;12.25;;;;;;;;;;10282305;28;20226;-76
2023/12/26 18:14:50;;;;;;;31.50;14.30;;;;;;;;;;10289660;28;20026;-79
2023/12/26 18:19:54;;;;;;;40.10;14.07;;;;;;;;;;10281978;28;20309;-78
2023/12/26 18:24:54;;;;;;;33.15;13.50;;;;;;;;;;10280616;28;20102;-77
2023/12/26 18:29:55;;;;;;;34.67;13.73;;;;;;;;;;10282139;28;20037;-77
2023/12/26 18:34:55;;;;;;;36.03;14.40;;;;;;;;;;10281516;28;20027;-77
2023/12/26 18:39:55;;;;;;;27.93;14.00;;;;;;;;;;10280517;28;20027;-80
2023/12/26 18:44:56;;;;;;;30.00;14.13;;;;;;;;;;10282045;28;20026;-81
2023/12/26 18:49:56;;;;;;;32.35;13.80;;;;;;;;;;10281844;28;20047;-80
2023/12/26 18:54:57;;;;;;;46.90;13.85;;;;;;;;;;10276687;28;20031;-80
2023/12/26 18:59:58;;;;;;;31.08;13.25;;;;;;;;;;10281492;28;20382;-77
2023/12/26 19:04:58;;;;;;;28.40;14.27;;;;;;;;;;10272089;28;20044;-80
2023/12/26 19:09:58;;;;;;;30.65;13.95;;;;;;;;;;10281230;28;20022;-77
2023/12/26 19:14:59;;;;;;;39.95;14.27;;;;;;;;;;10280522;28;20046;-76
2023/12/26 19:19:59;;;;;;;35.40;14.10;;;;;;;;;;10258028;28;20042;-78
2023/12/26 19:25:00;;;;;;;29.63;14.40;;;;;;;;;;10261877;28;20034;-77
2023/12/26 19:30:00;;;;;;;29.95;14.52;;;;;;;;;;10278568;28;20027;-79
2023/12/26 19:35:00;;;;;;;44.37;15.63;;;;;;;;;;10282179;28;20047;-80
2023/12/26 19:40:01;;;;;;;33.10;13.60;;;;;;;;;;10281110;28;20026;-83
2023/12/26 19:45:02;;;;;;;30.83;14.27;;;;;;;;;;10278295;28;20035;-82
2023/12/26 19:50:02;;;;;;;41.60;14.85;;;;;;;;;;10283589;28;20070;-83
2023/12/26 19:55:03;;;;;;;36.40;14.50;;;;;;;;;;10270339;28;20407;-73
2023/12/26 20:00:08;;;;;;;32.22;13.88;;;;;;;;;;10254973;28;20294;-77
2023/12/26 20:05:08;;;;;;;34.50;14.70;;;;;;;;;;10255750;28;20501;-75
2023/12/26 20:10:09;;;;;;;28.75;16.27;;;;;;;;;;10270509;28;20041;-79
2023/12/26 20:15:09;;;;;;;41.03;15.98;;;;;;;;;;10285745;28;20042;-75
2023/12/26 20:20:10;;;;;;;32.58;16.45;;;;;;;;;;10298177;28;20058;-72
2023/12/26 20:25:10;;;;;;;38.60;15.30;;;;;;;;;;10303092;28;20414;-75
2023/12/26 20:30:10;;;;;;;37.70;16.63;;;;;;;;;;10282594;28;20023;-77
2023/12/26 20:35:11;;;;;;;35.13;15.95;;;;;;;;;;10271194;28;20026;-76
2023/12/26 20:40:11;;;;;;;31.63;15.88;;;;;;;;;;10270182;28;20096;-74
2023/12/26 20:45:11;;;;;;;41.03;14.85;;;;;;;;;;10318667;28;20023;-76
2023/12/26 20:50:12;;;;;;;35.40;15.68;;;;;;;;;;10303074;28;20042;-73
2023/12/26 20:55:12;;;;;;;35.90;15.43;;;;;;;;;;10300711;28;20057;-71
2023/12/26 21:00:12;;;;;;;47.80;16.37;;;;;;;;;;10316776;28;20031;-77
2023/12/26 21:05:13;;;;;;;37.40;16.50;;;;;;;;;;10306012;28;20556;-79
2023/12/26 21:10:13;;;;;;;40.57;17.73;;;;;;;;;;10304653;28;20623;-78
2023/12/26 21:15:13;;;;;;;37.53;18.43;;;;;;;;;;10303398;28;20133;-76
2023/12/26 21:20:13;;;;;;;38.67;17.83;;;;;;;;;;10288106;28;20077;-78
2023/12/26 21:25:15;;;;;;;40.58;17.98;;;;;;;;;;10288567;28;20023;-77
2023/12/26 21:30:15;;;;;;;38.17;18.92;;;;;;;;;;10277095;28;20033;-76
2023/12/26 21:35:16;;;;;;;35.92;18.45;;;;;;;;;;10265400;28;20029;-78
2023/12/26 21:40:16;;;;;;;33.05;15.70;;;;;;;;;;10288438;28;20124;-75
2023/12/26 21:45:16;;;;;;;42.73;17.40;;;;;;;;;;10277232;28;20022;-74
2023/12/26 21:50:21;;;;;;;34.72;15.40;;;;;;;;;;10300911;28;20046;-77
2023/12/26 21:55:21;;;;;;;26.90;13.43;;;;;;;;;;10301216;28;20026;-76
2023/12/26 22:00:22;;;;;;;32.72;15.30;;;;;;;;;;10292560;28;20047;-76
2023/12/26 22:05:22;;;;;;;34.88;14.88;;;;;;;;;;10313925;28;20447;-76
2023/12/26 22:10:22;;;;;;;31.27;13.93;;;;;;;;;;10301090;28;20122;-75
2023/12/26 22:15:23;;;;;;;37.22;14.93;;;;;;;;;;10300788;28;20026;-74
2023/12/26 22:20:23;;;;;;;36.50;15.35;;;;;;;;;;10301039;28;20121;-76
2023/12/26 22:25:23;;;;;;;42.38;13.18;;;;;;;;;;10288261;28;20019;-75
2023/12/26 22:30:23;;;;;;;32.17;11.63;;;;;;;;;;10316180;28;20089;-78
2023/12/26 22:35:26;;;;;;;20.23;9.23;;;;;;;;;;10295712;28;20023;-77
2023/12/26 22:40:26;;;;;;;21.05;8.63;;;;;;;;;;10415903;23;20053;-73
2023/12/26 22:45:26;;;;;;;16.73;7.95;;;;;;;;;;10388612;28;20021;-76
2023/12/26 22:50:26;;;;;;;16.63;7.93;;;;;;;;;;10389630;28;20021;-77
2023/12/26 22:55:27;;;;;;;18.70;6.97;;;;;;;;;;10407250;28;20725;-83
2023/12/26 23:00:28;;;;;;;13.20;6.07;;;;;;;;;;10389188;28;20037;-77
2023/12/26 23:05:28;;;;;;;13.90;7.45;;;;;;;;;;10388633;28;20082;-76
2023/12/26 23:10:28;;;;;;;23.85;7.35;;;;;;;;;;10372430;28;20026;-77
2023/12/26 23:15:31;;;;;;;21.73;7.57;;;;;;;;;;10363578;28;20423;-81
2023/12/26 23:20:31;;;;;;;12.35;6.32;;;;;;;;;;10350337;28;20073;-80
2023/12/26 23:25:31;;;;;;;14.98;6.68;;;;;;;;;;10366415;28;20468;-76
2023/12/26 23:30:31;;;;;;;22.52;6.80;;;;;;;;;;10371013;28;20481;-77
2023/12/26 23:35:31;;;;;;;17.20;7.22;;;;;;;;;;10362813;28;20062;-76
2023/12/26 23:40:32;;;;;;;16.52;7.18;;;;;;;;;;10362979;28;20060;-75
2023/12/26 23:45:32;;;;;;;20.73;7.95;;;;;;;;;;10364379;28;20056;-79
2023/12/26 23:50:33;;;;;;;14.50;6.90;;;;;;;;;;10360613;28;20040;-78
2023/12/26 23:55:34;;;;;;;16.50;6.07;;;;;;;;;;10361907;28;20468;-77
